NKS849 KLAX-KLAS
Flight info
| Callsign | NKS849 |
|---|---|
| Flight time | 0h 43m |
| Altitude | 25000 |
| Route | ORCKA5 MISEN RNDRZ4 |
| Aircraft | A321/M-SDE3FGHIRWY/LB1 |
Departure
| Time | 2026-05-04 04:24 |
|---|---|
| Airport | Los Angeles International Airport (KLAX) |
Arrival
| Time | 2026-05-04 05:07 |
|---|---|
| Airport | Harry Reid International Airport (KLAS) |
| Time | Latitude | Longitude | Altitude | Speed | Heading |
|---|---|---|---|---|---|
| 2026-05-04 03:59 | 33.94024 | -118.40366 | 126 ft | 0 kts | 255° |
| 2026-05-04 04:14 | 33.94028 | -118.40346 | 120 ft | 3 kts | 251° |
| 2026-05-04 04:14 | 33.94038 | -118.40325 | 121 ft | 3 kts | 219° |
| 2026-05-04 04:14 | 33.94055 | -118.40314 | 120 ft | 3 kts | 189° |
| 2026-05-04 04:14 | 33.94072 | -118.40313 | 122 ft | 1 kts | 167° |
| 2026-05-04 04:15 | 33.94073 | -118.40314 | 122 ft | 0 kts | 167° |
| 2026-05-04 04:18 | 33.94067 | -118.40313 | 123 ft | 3 kts | 171° |
| 2026-05-04 04:18 | 33.94023 | -118.40307 | 120 ft | 10 kts | 174° |
| 2026-05-04 04:18 | 33.93941 | -118.40298 | 124 ft | 13 kts | 174° |
| 2026-05-04 04:18 | 33.93863 | -118.40275 | 123 ft | 10 kts | 133° |
| 2026-05-04 04:19 | 33.93859 | -118.40189 | 126 ft | 11 kts | 84° |
| 2026-05-04 04:19 | 33.93868 | -118.40096 | 122 ft | 12 kts | 83° |
| 2026-05-04 04:19 | 33.93878 | -118.39996 | 126 ft | 12 kts | 83° |
| 2026-05-04 04:19 | 33.93890 | -118.39881 | 126 ft | 15 kts | 83° |
| 2026-05-04 04:20 | 33.93903 | -118.39749 | 123 ft | 17 kts | 82° |
| 2026-05-04 04:20 | 33.93919 | -118.39600 | 126 ft | 19 kts | 83° |
| 2026-05-04 04:20 | 33.93936 | -118.39424 | 126 ft | 23 kts | 83° |
| 2026-05-04 04:20 | 33.93959 | -118.39222 | 126 ft | 26 kts | 83° |
| 2026-05-04 04:21 | 33.93981 | -118.38995 | 126 ft | 28 kts | 83° |
| 2026-05-04 04:21 | 33.94004 | -118.38762 | 126 ft | 28 kts | 83° |
| 2026-05-04 04:21 | 33.94028 | -118.38531 | 122 ft | 28 kts | 83° |
| 2026-05-04 04:21 | 33.94051 | -118.38309 | 123 ft | 27 kts | 83° |
| 2026-05-04 04:22 | 33.94069 | -118.38132 | 125 ft | 13 kts | 83° |
| 2026-05-04 04:22 | 33.94075 | -118.38070 | 125 ft | 2 kts | 83° |
| 2026-05-04 04:22 | 33.94071 | -118.38036 | 122 ft | 6 kts | 109° |
| 2026-05-04 04:22 | 33.94022 | -118.38008 | 121 ft | 11 kts | 182° |
| 2026-05-04 04:23 | 33.93982 | -118.38061 | 122 ft | 9 kts | 264° |
| 2026-05-04 04:23 | 33.93966 | -118.38213 | 122 ft | 45 kts | 263° |
| 2026-05-04 04:23 | 33.93897 | -118.38866 | 122 ft | 110 kts | 263° |
| 2026-05-04 04:23 | 33.93779 | -118.39995 | 127 ft | 160 kts | 263° |
| 2026-05-04 04:24 | 33.93645 | -118.41425 | 415 ft | 177 kts | 264° |
| 2026-05-04 04:24 | 33.93509 | -118.42891 | 1189 ft | 176 kts | 263° |
| 2026-05-04 04:24 | 33.93356 | -118.44381 | 1699 ft | 186 kts | 263° |
| 2026-05-04 04:24 | 33.92998 | -118.45973 | 1901 ft | 209 kts | 245° |
| 2026-05-04 04:25 | 33.92113 | -118.47493 | 2040 ft | 236 kts | 232° |
| 2026-05-04 04:25 | 33.91049 | -118.49085 | 2476 ft | 250 kts | 232° |
| 2026-05-04 04:25 | 33.89759 | -118.50516 | 3136 ft | 257 kts | 210° |
| 2026-05-04 04:25 | 33.88048 | -118.51144 | 3856 ft | 263 kts | 185° |
| 2026-05-04 04:26 | 33.86213 | -118.51252 | 4657 ft | 264 kts | 183° |
| 2026-05-04 04:26 | 33.84376 | -118.51344 | 5407 ft | 265 kts | 184° |
| 2026-05-04 04:26 | 33.82525 | -118.51433 | 6130 ft | 268 kts | 184° |
| 2026-05-04 04:26 | 33.80655 | -118.51525 | 6829 ft | 270 kts | 184° |
| 2026-05-04 04:27 | 33.78799 | -118.51619 | 7514 ft | 271 kts | 184° |
| 2026-05-04 04:27 | 33.76910 | -118.51713 | 8233 ft | 272 kts | 184° |
| 2026-05-04 04:27 | 33.75015 | -118.51810 | 8966 ft | 273 kts | 184° |
| 2026-05-04 04:27 | 33.73110 | -118.51877 | 9691 ft | 275 kts | 178° |
| 2026-05-04 04:28 | 33.71241 | -118.51349 | 10328 ft | 281 kts | 158° |
| 2026-05-04 04:28 | 33.69622 | -118.50012 | 10938 ft | 289 kts | 137° |
| 2026-05-04 04:28 | 33.68495 | -118.47996 | 11527 ft | 300 kts | 117° |
| 2026-05-04 04:28 | 33.67722 | -118.45575 | 11682 ft | 322 kts | 114° |
| 2026-05-04 04:29 | 33.66945 | -118.42969 | 11824 ft | 342 kts | 113° |
| 2026-05-04 04:29 | 33.66153 | -118.40242 | 12022 ft | 357 kts | 112° |
| 2026-05-04 04:29 | 33.65329 | -118.37394 | 12504 ft | 363 kts | 112° |
| 2026-05-04 04:29 | 33.64646 | -118.34448 | 13060 ft | 371 kts | 103° |
| 2026-05-04 04:30 | 33.64440 | -118.31338 | 13631 ft | 379 kts | 93° |
| 2026-05-04 04:30 | 33.64454 | -118.28165 | 14163 ft | 382 kts | 93° |
| 2026-05-04 04:30 | 33.64467 | -118.24956 | 14634 ft | 388 kts | 91° |
| 2026-05-04 04:30 | 33.64827 | -118.21719 | 15075 ft | 397 kts | 78° |
| 2026-05-04 04:31 | 33.65813 | -118.18587 | 15517 ft | 406 kts | 63° |
| 2026-05-04 04:31 | 33.67411 | -118.15756 | 15962 ft | 413 kts | 49° |
| 2026-05-04 04:31 | 33.69527 | -118.13420 | 16424 ft | 417 kts | 36° |
| 2026-05-04 04:31 | 33.71837 | -118.11356 | 16899 ft | 421 kts | 35° |
| 2026-05-04 04:32 | 33.74202 | -118.09248 | 17375 ft | 425 kts | 35° |
| 2026-05-04 04:32 | 33.76586 | -118.07119 | 17861 ft | 429 kts | 35° |
| 2026-05-04 04:32 | 33.78990 | -118.04965 | 18330 ft | 434 kts | 34° |
| 2026-05-04 04:32 | 33.81421 | -118.02782 | 18747 ft | 437 kts | 34° |
| 2026-05-04 04:33 | 33.83868 | -118.00579 | 19175 ft | 440 kts | 34° |
| 2026-05-04 04:33 | 33.86325 | -117.98365 | 19640 ft | 443 kts | 34° |
| 2026-05-04 04:33 | 33.88795 | -117.96134 | 20097 ft | 446 kts | 34° |
| 2026-05-04 04:33 | 33.91258 | -117.93909 | 20526 ft | 449 kts | 34° |
| 2026-05-04 04:34 | 33.93727 | -117.91666 | 20961 ft | 452 kts | 35° |
| 2026-05-04 04:34 | 33.96238 | -117.89372 | 21407 ft | 454 kts | 35° |
| 2026-05-04 04:34 | 33.98761 | -117.87062 | 21817 ft | 457 kts | 35° |
| 2026-05-04 04:34 | 34.01298 | -117.84742 | 22221 ft | 460 kts | 35° |
| 2026-05-04 04:35 | 34.03854 | -117.82406 | 22618 ft | 462 kts | 35° |
| 2026-05-04 04:35 | 34.06416 | -117.80059 | 23022 ft | 465 kts | 35° |
| 2026-05-04 04:35 | 34.08909 | -117.77537 | 23403 ft | 469 kts | 43° |
| 2026-05-04 04:35 | 34.11088 | -117.74589 | 23748 ft | 473 kts | 50° |
| 2026-05-04 04:36 | 34.13163 | -117.71495 | 24063 ft | 476 kts | 50° |
| 2026-05-04 04:36 | 34.15247 | -117.68394 | 24387 ft | 478 kts | 50° |
| 2026-05-04 04:36 | 34.17350 | -117.65269 | 24709 ft | 481 kts | 50° |
| 2026-05-04 04:36 | 34.19463 | -117.62137 | 24962 ft | 483 kts | 49° |
| 2026-05-04 04:37 | 34.25730 | -117.52816 | 25011 ft | 475 kts | 50° |
| 2026-05-04 04:37 | 34.27809 | -117.49718 | 24992 ft | 474 kts | 50° |
| 2026-05-04 04:38 | 34.29887 | -117.46621 | 24984 ft | 474 kts | 50° |
| 2026-05-04 04:38 | 34.31961 | -117.43530 | 24970 ft | 473 kts | 50° |
| 2026-05-04 04:38 | 34.34034 | -117.40431 | 24958 ft | 473 kts | 50° |
| 2026-05-04 04:38 | 34.36100 | -117.37335 | 24962 ft | 473 kts | 50° |
| 2026-05-04 04:39 | 34.38169 | -117.34230 | 24961 ft | 473 kts | 50° |
| 2026-05-04 04:39 | 34.40232 | -117.31140 | 24964 ft | 473 kts | 50° |
| 2026-05-04 04:39 | 34.42302 | -117.28045 | 24967 ft | 472 kts | 50° |
| 2026-05-04 04:39 | 34.44368 | -117.24951 | 24968 ft | 472 kts | 50° |
| 2026-05-04 04:40 | 34.46405 | -117.21888 | 24962 ft | 472 kts | 50° |
| 2026-05-04 04:40 | 34.48461 | -117.18794 | 24962 ft | 472 kts | 50° |
| 2026-05-04 04:40 | 34.50514 | -117.15697 | 24954 ft | 471 kts | 50° |
| 2026-05-04 04:40 | 34.52561 | -117.12607 | 24943 ft | 471 kts | 50° |
| 2026-05-04 04:41 | 34.54607 | -117.09518 | 24929 ft | 470 kts | 50° |
| 2026-05-04 04:41 | 34.56678 | -117.06442 | 24914 ft | 470 kts | 49° |
| 2026-05-04 04:41 | 34.58766 | -117.03397 | 24900 ft | 470 kts | 49° |
| 2026-05-04 04:41 | 34.60868 | -117.00364 | 24858 ft | 469 kts | 49° |
| 2026-05-04 04:42 | 34.62967 | -116.97337 | 24857 ft | 469 kts | 49° |
| 2026-05-04 04:42 | 34.65063 | -116.94304 | 24865 ft | 469 kts | 49° |
| 2026-05-04 04:42 | 34.67153 | -116.91268 | 24864 ft | 468 kts | 49° |
| 2026-05-04 04:42 | 34.69189 | -116.88300 | 24863 ft | 468 kts | 49° |
| 2026-05-04 04:43 | 34.71279 | -116.85241 | 24870 ft | 468 kts | 49° |
| 2026-05-04 04:43 | 34.73353 | -116.82202 | 24877 ft | 467 kts | 49° |
| 2026-05-04 04:43 | 34.75427 | -116.79161 | 24881 ft | 467 kts | 49° |
| 2026-05-04 04:43 | 34.77498 | -116.76119 | 24884 ft | 467 kts | 50° |
| 2026-05-04 04:44 | 34.79570 | -116.73073 | 24882 ft | 467 kts | 49° |
| 2026-05-04 04:44 | 34.81639 | -116.70033 | 24881 ft | 466 kts | 50° |
| 2026-05-04 04:44 | 34.83697 | -116.67007 | 24881 ft | 466 kts | 50° |
| 2026-05-04 04:44 | 34.85892 | -116.64110 | 24877 ft | 464 kts | 41° |
| 2026-05-04 04:45 | 34.88369 | -116.61604 | 24872 ft | 463 kts | 37° |
| 2026-05-04 04:45 | 34.90891 | -116.59176 | 24863 ft | 462 kts | 37° |
| 2026-05-04 04:45 | 34.93405 | -116.56752 | 24856 ft | 462 kts | 37° |
| 2026-05-04 04:47 | 35.08430 | -116.42135 | 24842 ft | 461 kts | 37° |
| 2026-05-04 04:47 | 35.10853 | -116.39576 | 24840 ft | 461 kts | 44° |
| 2026-05-04 04:47 | 35.13053 | -116.36778 | 24628 ft | 452 kts | 46° |
| 2026-05-04 04:47 | 35.15190 | -116.34023 | 24394 ft | 442 kts | 46° |
| 2026-05-04 04:48 | 35.17273 | -116.31326 | 24162 ft | 435 kts | 46° |
| 2026-05-04 04:49 | 35.25377 | -116.20710 | 23148 ft | 421 kts | 47° |
| 2026-05-04 04:49 | 35.27317 | -116.18056 | 22720 ft | 418 kts | 48° |
| 2026-05-04 04:49 | 35.29237 | -116.15394 | 22296 ft | 415 kts | 49° |
| 2026-05-04 04:49 | 35.31136 | -116.12754 | 21888 ft | 412 kts | 49° |
| 2026-05-04 04:50 | 35.33024 | -116.10134 | 21463 ft | 409 kts | 49° |
| 2026-05-04 04:50 | 35.34899 | -116.07541 | 21040 ft | 406 kts | 48° |
| 2026-05-04 04:50 | 35.36769 | -116.04964 | 20610 ft | 403 kts | 48° |
| 2026-05-04 04:50 | 35.38631 | -116.02404 | 20171 ft | 401 kts | 48° |
| 2026-05-04 04:51 | 35.40485 | -115.99861 | 19732 ft | 399 kts | 48° |
| 2026-05-04 04:51 | 35.42305 | -115.97363 | 19304 ft | 396 kts | 48° |
| 2026-05-04 04:51 | 35.44134 | -115.94845 | 18866 ft | 394 kts | 49° |
| 2026-05-04 04:51 | 35.45950 | -115.92338 | 18421 ft | 391 kts | 49° |
| 2026-05-04 04:52 | 35.47716 | -115.89901 | 17954 ft | 374 kts | 49° |
| 2026-05-04 04:52 | 35.49400 | -115.87573 | 17717 ft | 360 kts | 49° |
| 2026-05-04 04:52 | 35.51057 | -115.85282 | 17320 ft | 357 kts | 49° |
| 2026-05-04 04:52 | 35.52701 | -115.83010 | 16903 ft | 355 kts | 49° |
| 2026-05-04 04:53 | 35.54330 | -115.80756 | 16504 ft | 352 kts | 49° |
| 2026-05-04 04:53 | 35.55940 | -115.78525 | 16264 ft | 344 kts | 49° |
| 2026-05-04 04:53 | 35.57511 | -115.76344 | 16009 ft | 338 kts | 49° |
| 2026-05-04 04:53 | 35.59036 | -115.74226 | 15761 ft | 333 kts | 49° |
| 2026-05-04 04:54 | 35.60575 | -115.72112 | 15509 ft | 331 kts | 48° |
| 2026-05-04 04:54 | 35.62120 | -115.70024 | 15261 ft | 329 kts | 48° |
| 2026-05-04 04:54 | 35.63663 | -115.67953 | 15016 ft | 328 kts | 47° |
| 2026-05-04 04:54 | 35.65199 | -115.65892 | 14778 ft | 326 kts | 48° |
| 2026-05-04 04:55 | 35.66723 | -115.63842 | 14531 ft | 324 kts | 48° |
| 2026-05-04 04:55 | 35.68234 | -115.61801 | 14297 ft | 322 kts | 48° |
| 2026-05-04 04:55 | 35.69736 | -115.59769 | 14055 ft | 321 kts | 48° |
| 2026-05-04 04:55 | 35.71234 | -115.57743 | 13820 ft | 319 kts | 48° |
| 2026-05-04 04:56 | 35.72772 | -115.55837 | 13584 ft | 318 kts | 39° |
| 2026-05-04 04:56 | 35.74596 | -115.54324 | 13325 ft | 316 kts | 29° |
| 2026-05-04 04:56 | 35.76507 | -115.52999 | 13062 ft | 315 kts | 29° |
| 2026-05-04 04:56 | 35.78407 | -115.51676 | 12911 ft | 311 kts | 30° |
| 2026-05-04 04:57 | 35.80300 | -115.50355 | 13016 ft | 315 kts | 30° |
| 2026-05-04 04:57 | 35.82206 | -115.49019 | 13019 ft | 315 kts | 30° |
| 2026-05-04 04:57 | 35.84107 | -115.47681 | 13018 ft | 315 kts | 30° |
| 2026-05-04 04:57 | 35.86010 | -115.46340 | 13019 ft | 315 kts | 30° |
| 2026-05-04 04:58 | 35.87914 | -115.45000 | 13017 ft | 315 kts | 30° |
| 2026-05-04 04:58 | 35.89819 | -115.43662 | 13019 ft | 315 kts | 30° |
| 2026-05-04 04:58 | 35.91698 | -115.42345 | 12920 ft | 317 kts | 30° |
| 2026-05-04 04:58 | 35.93625 | -115.41000 | 12486 ft | 317 kts | 30° |
| 2026-05-04 04:59 | 35.95542 | -115.39665 | 12097 ft | 316 kts | 30° |
| 2026-05-04 04:59 | 35.97451 | -115.38334 | 11735 ft | 314 kts | 30° |
| 2026-05-04 04:59 | 35.99234 | -115.36821 | 11374 ft | 311 kts | 45° |
| 2026-05-04 04:59 | 36.00549 | -115.34738 | 11005 ft | 306 kts | 64° |
| 2026-05-04 05:00 | 36.01259 | -115.32301 | 10730 ft | 300 kts | 82° |
| 2026-05-04 05:00 | 36.01354 | -115.29788 | 10480 ft | 296 kts | 96° |
| 2026-05-04 05:00 | 36.01097 | -115.24740 | 9920 ft | 291 kts | 95° |
| 2026-05-04 05:01 | 36.00977 | -115.22256 | 9282 ft | 289 kts | 95° |
| 2026-05-04 05:01 | 36.00855 | -115.19782 | 8724 ft | 287 kts | 95° |
| 2026-05-04 05:01 | 36.00736 | -115.17402 | 8570 ft | 269 kts | 95° |
| 2026-05-04 05:01 | 36.00624 | -115.15155 | 8363 ft | 255 kts | 95° |
| 2026-05-04 05:02 | 36.00517 | -115.13013 | 8047 ft | 246 kts | 96° |
| 2026-05-04 05:02 | 36.00410 | -115.10929 | 7540 ft | 243 kts | 96° |
| 2026-05-04 05:02 | 36.00304 | -115.08879 | 6969 ft | 242 kts | 96° |
| 2026-05-04 05:02 | 36.00197 | -115.06806 | 6404 ft | 241 kts | 96° |
| 2026-05-04 05:03 | 36.00093 | -115.04745 | 5820 ft | 240 kts | 96° |
| 2026-05-04 05:03 | 35.99990 | -115.02685 | 5244 ft | 240 kts | 95° |
| 2026-05-04 05:04 | 36.02860 | -114.98281 | 3628 ft | 235 kts | 9° |
| 2026-05-04 05:04 | 36.04430 | -114.98355 | 3585 ft | 214 kts | 345° |
| 2026-05-04 05:04 | 36.05714 | -114.99084 | 3588 ft | 197 kts | 323° |
| 2026-05-04 05:06 | 36.07367 | -115.08429 | 2786 ft | 153 kts | 267° |
| 2026-05-04 05:06 | 36.07380 | -115.09729 | 2554 ft | 149 kts | 267° |
| 2026-05-04 05:06 | 36.07384 | -115.10998 | 2344 ft | 147 kts | 265° |
| 2026-05-04 05:07 | 36.07362 | -115.12270 | 2149 ft | 148 kts | 270° |
| 2026-05-04 05:07 | 36.07380 | -115.13520 | 2083 ft | 132 kts | 263° |
| 2026-05-04 05:07 | 36.07360 | -115.14287 | 2114 ft | 48 kts | 270° |
| 2026-05-04 05:09 | 36.08003 | -115.15408 | 2153 ft | 17 kts | 334° |
| 2026-05-04 05:09 | 36.08113 | -115.15441 | 2149 ft | 18 kts | 5° |
| 2026-05-04 05:10 | 36.08226 | -115.15435 | 2142 ft | 16 kts | 340° |
| 2026-05-04 05:10 | 36.08319 | -115.15488 | 2136 ft | 13 kts | 347° |
| 2026-05-04 05:10 | 36.08388 | -115.15417 | 2128 ft | 7 kts | 60° |
| 2026-05-04 05:10 | 36.08432 | -115.15375 | 2125 ft | 5 kts | 30° |
| 2026-05-04 05:11 | 36.08465 | -115.15386 | 2122 ft | 5 kts | 337° |
| 2026-05-04 05:11 | 36.08486 | -115.15398 | 2123 ft | 1 kts | 334° |
| 2026-05-04 05:11 | 36.08487 | -115.15398 | 2123 ft | 0 kts | 334° |